Time;durP1;ratioP1;P1;durP2;ratioP2;P2;SDS_P1;SDS_P2;PMS_P1;PMS_P2;Temp;Humidity;BMP_temperature;BMP_pressure;BME280_temperature;BME280_humidity;BME280_pressure;Samples;Min_cycle;Max_cycle;Signal;HPM_P1;HPM_P2
2022/10/15 00:00:32;;;;;;;;;10.00;9.00;;;;;21.28;59.91;100175.53;5063166;28;46124;-47
2022/10/15 00:02:57;;;;;;;;;12.50;11.00;;;;;21.29;60.05;100168.47;5079577;28;55459;-45
2022/10/15 00:05:22;;;;;;;;;17.25;13.50;;;;;21.28;60.06;100170.22;5080748;28;64601;-46
2022/10/15 00:07:48;;;;;;;;;8.50;7.25;;;;;21.29;60.17;100173.78;5080369;28;68597;-44
2022/10/15 00:10:13;;;;;;;;;10.50;10.00;;;;;21.27;59.97;100171.16;5080600;28;63920;-44
2022/10/15 00:12:39;;;;;;;;;14.75;13.75;;;;;21.26;60.21;100169.41;5064024;27;45153;-47
2022/10/15 00:15:05;;;;;;;;;14.00;10.00;;;;;21.26;60.52;100168.56;5061079;28;45295;-44
2022/10/15 00:17:32;;;;;;;;;14.75;11.25;;;;;21.25;60.43;100173.00;5059331;28;45334;-45
2022/10/15 00:19:57;;;;;;;;;11.50;11.50;;;;;21.26;60.22;100171.19;5060705;28;45526;-44
2022/10/15 00:22:23;;;;;;;;;9.75;9.25;;;;;21.25;60.10;100167.69;5060831;28;45327;-45
2022/10/15 00:24:48;;;;;;;;;14.25;11.00;;;;;21.26;60.11;100168.56;5060256;28;60921;-44
2022/10/15 00:27:13;;;;;;;;;12.00;12.00;;;;;21.26;60.08;100163.25;5060042;28;45472;-45
2022/10/15 00:29:39;;;;;;;;;13.25;11.25;;;;;21.25;59.94;100165.03;5060362;28;56270;-46
2022/10/15 00:32:04;;;;;;;;;12.50;11.50;;;;;21.27;60.04;100162.34;5059265;28;70933;-48
2022/10/15 00:34:30;;;;;;;;;15.00;13.75;;;;;21.27;60.13;100165.84;5060791;28;45497;-48
2022/10/15 00:36:55;;;;;;;;;14.75;10.00;;;;;21.26;60.35;100153.47;5059830;28;60621;-44
2022/10/15 00:39:20;;;;;;;;;14.50;13.00;;;;;21.27;60.23;100151.72;5060048;28;63596;-45
2022/10/15 00:41:46;;;;;;;;;16.00;14.25;;;;;21.28;60.14;100151.66;5060481;28;45334;-45
2022/10/15 00:44:20;;;;;;;;;13.75;11.75;;;;;21.29;60.18;100152.53;5060620;28;45305;-44
2022/10/15 00:46:45;;;;;;;;;14.00;12.25;;;;;21.29;59.89;100155.19;5072747;28;45522;-45
2022/10/15 00:49:49;;;;;;;;;15.50;14.25;;;;;21.29;59.89;100158.72;5042324;28;49940;-44
2022/10/15 00:52:19;;;;;;;;;13.00;10.50;;;;;21.29;60.26;100157.84;5059079;28;45399;-43
2022/10/15 00:54:51;;;;;;;;;9.75;9.25;;;;;21.28;60.86;100162.28;5061798;28;45261;-43
2022/10/15 00:57:16;;;;;;;;;10.75;9.75;;;;;21.23;60.89;100150.97;5079448;28;45638;-44
2022/10/15 00:59:43;;;;;;;;;12.50;10.50;;;;;21.22;60.73;100153.72;5062145;28;53650;-49
2022/10/15 01:02:09;;;;;;;;;17.75;13.50;;;;;21.20;60.86;100144.94;5062300;28;45308;-46
2022/10/15 01:04:34;;;;;;;;;13.00;12.00;;;;;21.19;60.60;100141.41;5079387;28;45290;-46
2022/10/15 01:06:59;;;;;;;;;11.75;11.50;;;;;21.18;60.74;100137.91;5069281;28;59094;-47
2022/10/15 01:09:25;;;;;;;;;12.25;10.25;;;;;21.18;60.85;100139.69;5061790;28;62048;-44
2022/10/15 01:11:51;;;;;;;;;14.67;11.33;;;;;21.17;60.46;100144.13;5068671;28;45272;-48
2022/10/15 01:14:47;;;;;;;;;11.25;10.00;;;;;21.15;61.01;100130.09;5077748;28;45426;-43
2022/10/15 01:17:15;;;;;;;;;15.50;11.25;;;;;21.15;61.01;100129.22;5079976;28;45301;-43
2022/10/15 01:20:31;;;;;;;;;13.00;11.25;;;;;21.13;61.01;100115.16;5075032;28;46384;-47
2022/10/15 01:23:37;;;;;;;;;15.00;13.25;;;;;21.11;60.95;100115.25;5025472;28;45479;-42
2022/10/15 01:26:10;;;;;;;;;14.50;14.25;;;;;21.14;60.71;100109.78;5067805;28;45508;-42
2022/10/15 01:28:36;;;;;;;;;13.25;13.25;;;;;21.16;60.77;100105.25;5078960;28;45492;-45
2022/10/15 01:31:05;;;;;;;;;11.75;11.75;;;;;21.18;60.68;100091.91;5079914;28;46098;-42
2022/10/15 01:33:36;;;;;;;;;11.00;9.25;;;;;21.20;60.84;100095.41;5062241;28;45417;-44
2022/10/15 01:36:16;;;;;;;;;15.75;11.25;;;;;21.22;60.88;100093.53;5069224;28;45309;-45
2022/10/15 01:38:59;;;;;;;;;13.50;12.50;;;;;21.21;60.65;100085.63;5077116;28;45504;-44
2022/10/15 01:41:39;;;;;;;;;14.00;13.25;;;;;21.22;60.44;100084.69;5049981;28;47527;-47
2022/10/15 01:44:22;;;;;;;;;17.00;12.75;;;;;21.22;60.48;100077.59;5055006;28;45352;-44
2022/10/15 01:46:54;;;;;;;;;15.25;13.75;;;;;21.24;60.80;100073.06;5063319;28;45390;-45
2022/10/15 01:49:20;;;;;;;;;12.25;12.25;;;;;21.24;60.34;100069.56;5062034;28;45542;-43
2022/10/15 01:51:45;;;;;;;;;14.00;10.00;;;;;21.24;60.39;100066.91;5080834;28;45266;-43
2022/10/15 01:54:13;;;;;;;;;15.00;13.25;;;;;21.24;60.23;100064.25;5044996;28;45265;-45
2022/10/15 01:56:38;;;;;;;;;10.50;10.00;;;;;21.26;60.26;100067.69;5080905;28;45414;-42
2022/10/15 01:59:03;;;;;;;;;12.00;10.50;;;;;21.26;60.47;100062.38;5070662;28;45493;-45
2022/10/15 02:01:29;;;;;;;;;12.25;10.25;;;;;21.27;60.20;100048.22;5062218;28;53880;-43
2022/10/15 02:03:54;;;;;;;;;12.50;9.00;;;;;21.26;60.36;100041.16;5061346;28;63389;-45
2022/10/15 02:06:30;;;;;;;;;7.25;7.25;;;;;21.27;60.22;100042.91;5062370;28;60041;-44
2022/10/15 02:08:57;;;;;;;;;13.50;12.25;;;;;21.26;60.32;100047.31;5057773;28;46662;-45
2022/10/15 02:11:23;;;;;;;;;10.50;10.00;;;;;21.26;60.25;100030.53;5076317;27;46224;-48
2022/10/15 02:14:02;;;;;;;;;14.75;13.00;;;;;21.27;60.23;100029.63;5062046;28;64815;-44
2022/10/15 02:16:44;;;;;;;;;12.00;9.50;;;;;21.25;60.36;100016.41;5069049;28;45368;-43
2022/10/15 02:19:39;;;;;;;;;14.25;10.00;;;;;21.26;60.32;100017.25;5081170;28;45277;-41
2022/10/15 02:22:07;;;;;;;;;10.50;10.00;;;;;21.27;59.98;100011.91;5040305;28;47992;-44
2022/10/15 02:24:57;;;;;;;;;11.25;9.00;;;;;21.26;60.04;100009.31;5083162;28;45355;-47
2022/10/15 02:27:22;;;;;;;;;14.75;13.00;;;;;21.26;60.04;99991.59;5066996;28;45990;-49
2022/10/15 02:29:48;;;;;;;;;14.25;10.75;;;;;21.26;60.15;99983.63;5081693;28;48794;-44
2022/10/15 02:32:14;;;;;;;;;10.50;8.00;;;;;21.26;60.50;99986.28;5064249;28;45268;-46
2022/10/15 02:34:39;;;;;;;;;12.50;11.25;;;;;21.26;60.06;99983.63;5081650;28;46483;-47
2022/10/15 02:37:04;;;;;;;;;14.00;10.00;;;;;21.27;60.40;99973.91;5081648;28;45341;-45
2022/10/15 02:39:30;;;;;;;;;12.25;10.75;;;;;21.26;60.02;99967.69;5064725;28;45371;-44
2022/10/15 02:41:55;;;;;;;;;10.00;9.50;;;;;21.26;59.94;99954.44;5064476;28;45928;-47
2022/10/15 02:44:21;;;;;;;;;12.00;9.25;;;;;21.26;59.94;99938.50;5044416;28;45843;-44
2022/10/15 02:46:46;;;;;;;;;9.50;9.50;;;;;21.26;60.47;99937.66;5062303;28;45268;-47
2022/10/15 02:49:12;;;;;;;;;14.50;11.00;;;;;21.25;60.32;99934.13;5060728;28;58871;-42
2022/10/15 02:51:37;;;;;;;;;10.75;9.00;;;;;21.26;60.32;99945.59;5061411;28;54585;-45
2022/10/15 02:54:03;;;;;;;;;8.25;8.00;;;;;21.26;60.33;99943.81;5071080;28;45353;-42
2022/10/15 02:56:28;;;;;;;;;11.25;10.00;;;;;21.27;60.02;99939.41;5078168;27;45446;-48
2022/10/15 02:58:54;;;;;;;;;11.00;8.25;;;;;21.27;59.90;99945.56;5061763;28;60625;-45
2022/10/15 03:01:19;;;;;;;;;8.25;8.25;;;;;21.27;60.01;99937.59;5061050;28;64858;-44
2022/10/15 03:03:45;;;;;;;;;11.25;10.00;;;;;21.28;59.93;99928.69;5062176;28;49289;-47
2022/10/15 03:06:10;;;;;;;;;9.75;9.00;;;;;21.28;59.90;99930.50;5061400;28;58944;-46
2022/10/15 03:08:35;;;;;;;;;11.50;10.00;;;;;21.29;59.77;99926.94;5060205;28;59917;-49
2022/10/15 03:11:01;;;;;;;;;10.75;9.00;;;;;21.27;60.16;99919.03;5073818;28;45309;-48
2022/10/15 03:13:27;;;;;;;;;11.00;9.25;;;;;21.27;60.00;99915.50;5061994;28;45274;-45
2022/10/15 03:15:52;;;;;;;;;11.75;10.00;;;;;21.26;60.24;99919.06;5061620;28;45292;-48
2022/10/15 03:18:18;;;;;;;;;8.25;8.25;;;;;21.27;60.00;99918.16;5061705;28;51920;-46
2022/10/15 03:20:43;;;;;;;;;11.00;10.50;;;;;21.27;60.31;99907.53;5059921;28;57779;-46
2022/10/15 03:23:09;;;;;;;;;10.75;7.25;;;;;21.27;60.21;99895.13;5061918;28;45176;-44
2022/10/15 03:25:34;;;;;;;;;10.75;10.25;;;;;21.27;60.05;99892.47;5061190;28;61631;-45
2022/10/15 03:27:59;;;;;;;;;11.25;9.75;;;;;21.27;60.47;99895.13;5061324;28;59733;-46
2022/10/15 03:30:25;;;;;;;;;9.00;9.00;;;;;21.29;59.74;99889.78;5061177;28;45299;-47
2022/10/15 03:32:50;;;;;;;;;13.00;9.25;;;;;21.29;60.14;99882.69;5060708;28;65621;-43
2022/10/15 03:35:16;;;;;;;;;8.00;8.00;;;;;21.29;60.06;99888.00;5059980;28;55687;-44
2022/10/15 03:37:41;;;;;;;;;10.00;8.25;;;;;21.29;60.15;99884.47;5060458;28;45254;-46
2022/10/15 03:40:07;;;;;;;;;9.75;7.25;;;;;21.29;59.97;99874.72;5061462;28;45912;-46
2022/10/15 03:42:32;;;;;;;;;8.25;7.25;;;;;21.30;59.83;99880.88;5059705;28;45276;-42
2022/10/15 03:44:57;;;;;;;;;9.50;7.75;;;;;21.29;59.87;99868.56;5042924;28;55810;-42
2022/10/15 03:47:23;;;;;;;;;3.00;1.00;;;;;21.29;59.70;99866.75;5060310;28;69416;-43
2022/10/15 03:49:48;;;;;;;;;12.50;8.75;;;;;21.29;59.75;99864.09;5060637;28;67392;-47
2022/10/15 03:52:14;;;;;;;;;7.50;6.75;;;;;21.29;60.29;99861.44;5060689;28;65080;-45
2022/10/15 03:54:39;;;;;;;;;10.00;8.50;;;;;21.30;59.75;99857.00;5063361;28;45405;-47
2022/10/15 03:57:05;;;;;;;;;6.75;6.50;;;;;21.30;59.86;99862.31;5081093;28;59729;-45
2022/10/15 03:59:30;;;;;;;;;6.75;5.50;;;;;21.28;59.99;99854.38;5080490;28;68843;-43
2022/10/15 04:01:55;;;;;;;;;6.75;6.00;;;;;21.29;60.20;99853.47;5078649;28;52658;-46
2022/10/15 04:04:21;;;;;;;;;8.75;8.50;;;;;21.30;59.96;99843.72;5080374;28;45354;-45
2022/10/15 04:06:46;;;;;;;;;7.00;7.00;;;;;21.29;59.87;99845.53;5081023;28;59112;-46
2022/10/15 04:09:12;;;;;;;;;8.00;8.00;;;;;21.30;60.14;99841.06;5081242;28;45319;-47
2022/10/15 04:11:37;;;;;;;;;7.50;6.25;;;;;21.29;59.90;99848.19;5076767;28;45264;-42
2022/10/15 04:14:03;;;;;;;;;6.00;6.00;;;;;21.29;59.99;99842.88;5060310;28;57919;-43
2022/10/15 04:16:29;;;;;;;;;8.75;7.00;;;;;21.28;59.67;99838.47;5067752;28;47543;-44
2022/10/15 04:18:54;;;;;;;;;5.00;5.00;;;;;21.28;59.91;99841.13;5077712;28;66242;-43
2022/10/15 04:21:20;;;;;;;;;5.25;5.25;;;;;21.27;59.88;99831.44;5060801;28;45207;-44
2022/10/15 04:23:45;;;;;;;;;7.00;5.00;;;;;21.27;60.32;99835.88;5060834;28;45227;-43
2022/10/15 04:26:11;;;;;;;;;7.00;6.00;;;;;21.27;60.07;99831.44;5060178;28;67432;-45
2022/10/15 04:28:36;;;;;;;;;6.00;5.75;;;;;21.26;60.24;99832.34;5059485;28;47285;-44
2022/10/15 04:31:02;;;;;;;;;6.75;6.75;;;;;21.26;60.07;99835.00;5060719;28;45263;-44
2022/10/15 04:33:27;;;;;;;;;7.00;5.00;;;;;21.27;60.01;99839.41;5070451;28;45396;-42
2022/10/15 04:36:03;;;;;;;;;5.75;5.00;;;;;21.28;59.92;99824.34;5042804;28;45297;-44
2022/10/15 04:38:29;;;;;;;;;6.25;5.00;;;;;21.27;60.14;99826.13;5056465;28;45469;-47
2022/10/15 04:40:59;;;;;;;;;6.00;4.75;;;;;21.26;59.74;99832.34;5059413;28;45371;-47
2022/10/15 04:43:25;;;;;;;;;6.75;5.00;;;;;21.27;60.14;99819.97;5059338;28;45463;-45
2022/10/15 04:45:50;;;;;;;;;7.25;7.25;;;;;21.27;60.04;99825.28;5068671;28;45260;-44
2022/10/15 04:48:15;;;;;;;;;5.00;4.25;;;;;21.26;60.25;99832.34;5064120;28;51946;-45
2022/10/15 04:50:41;;;;;;;;;5.75;5.50;;;;;21.26;60.50;99824.38;5058820;28;60106;-46
2022/10/15 04:53:06;;;;;;;;;7.00;5.00;;;;;21.26;60.53;99823.53;5059088;28;45566;-43
2022/10/15 04:55:32;;;;;;;;;5.00;5.00;;;;;21.24;60.36;99831.56;5069510;28;55728;-43
2022/10/15 04:57:57;;;;;;;;;4.75;4.75;;;;;21.23;60.91;99834.31;5078141;28;75316;-43
2022/10/15 05:00:22;;;;;;;;;4.00;3.50;;;;;21.21;61.03;99842.34;5079447;28;45434;-47
2022/10/15 05:02:48;;;;;;;;;5.25;5.00;;;;;21.21;60.73;99845.00;5080192;28;50185;-49
2022/10/15 05:05:13;;;;;;;;;7.00;5.25;;;;;21.20;60.40;99845.06;5078725;28;62305;-44
2022/10/15 05:07:39;;;;;;;;;4.25;4.00;;;;;21.18;60.88;99837.16;5079049;28;51644;-43
2022/10/15 05:10:05;;;;;;;;;4.75;3.25;;;;;21.18;60.92;99843.34;5080495;28;45425;-44
2022/10/15 05:12:30;;;;;;;;;6.75;4.00;;;;;21.19;60.92;99854.81;5075661;28;45528;-44
2022/10/15 05:14:55;;;;;;;;;5.00;4.00;;;;;21.20;60.73;99843.28;5059240;28;59913;-43
2022/10/15 05:17:21;;;;;;;;;5.50;4.00;;;;;21.20;60.93;99845.06;5057594;28;66419;-45
2022/10/15 05:19:46;;;;;;;;;3.75;3.75;;;;;21.18;60.70;99848.66;5059597;28;57832;-45
2022/10/15 05:22:11;;;;;;;;;5.50;5.50;;;;;21.19;60.84;99844.19;5071496;28;67306;-48
2022/10/15 05:24:37;;;;;;;;;5.00;4.00;;;;;21.19;61.03;99846.84;5059480;28;65254;-46
2022/10/15 05:27:02;;;;;;;;;4.00;4.00;;;;;21.17;60.82;99854.88;5059261;28;67024;-45
2022/10/15 05:29:27;;;;;;;;;6.00;4.75;;;;;21.17;61.00;99848.72;5066611;28;54662;-48
2022/10/15 05:31:53;;;;;;;;;4.75;4.75;;;;;21.18;60.96;99846.00;5064598;28;62256;-45
2022/10/15 05:34:18;;;;;;;;;4.50;3.50;;;;;21.19;61.06;99849.50;5058573;28;45552;-43
2022/10/15 05:36:44;;;;;;;;;5.00;3.50;;;;;21.22;60.66;99854.69;5058678;28;45441;-44
2022/10/15 05:39:11;;;;;;;;;7.50;4.25;;;;;21.22;61.00;99838.75;5066612;28;52737;-43
2022/10/15 05:41:36;;;;;;;;;4.75;4.75;;;;;21.24;60.99;99846.63;5060765;28;45278;-45
2022/10/15 05:44:01;;;;;;;;;5.00;5.00;;;;;21.24;60.96;99841.31;5046717;28;45614;-46
2022/10/15 05:46:27;;;;;;;;;6.50;4.00;;;;;21.23;61.09;99845.78;5059445;28;47007;-44
2022/10/15 05:48:54;;;;;;;;;4.00;4.00;;;;;21.22;60.95;99845.84;5079035;28;45337;-44
2022/10/15 05:51:19;;;;;;;;;4.00;4.00;;;;;21.21;60.94;99841.50;5064412;28;45531;-44
2022/10/15 05:53:45;;;;;;;;;4.25;4.25;;;;;21.22;61.41;99845.84;5069232;28;45329;-44
2022/10/15 05:56:11;;;;;;;;;3.25;3.25;;;;;21.21;61.14;99838.84;5058102;28;45966;-46
2022/10/15 05:58:37;;;;;;;;;4.50;4.50;;;;;21.18;61.51;99843.34;5058923;28;45264;-44
2022/10/15 06:01:03;;;;;;;;;4.00;4.00;;;;;21.18;61.64;99835.38;5070110;28;45222;-44
2022/10/15 06:03:29;;;;;;;;;3.75;3.25;;;;;21.17;61.57;99833.66;5078592;28;45240;-46
2022/10/15 06:05:54;;;;;;;;;4.00;3.00;;;;;21.17;61.66;99838.09;5078515;28;45308;-46
2022/10/15 06:08:20;;;;;;;;;5.25;5.00;;;;;21.16;61.84;99839.03;5079197;28;60770;-45
2022/10/15 06:10:45;;;;;;;;;5.25;4.00;;;;;21.16;61.97;99837.25;5068604;28;45394;-43
2022/10/15 06:13:11;;;;;;;;;7.25;3.00;;;;;21.14;61.94;99846.22;5059258;28;45166;-43
2022/10/15 06:15:40;;;;;;;;;3.50;3.50;;;;;21.14;62.19;99836.47;5059077;28;46352;-43
2022/10/15 06:18:05;;;;;;;;;6.00;4.25;;;;;21.15;62.82;99843.50;5059157;28;45326;-45
2022/10/15 06:20:31;;;;;;;;;4.25;4.25;;;;;21.13;62.50;99844.50;5058723;28;62276;-44
2022/10/15 06:22:57;;;;;;;;;4.25;3.50;;;;;21.14;62.79;99840.91;5057909;28;45592;-43
2022/10/15 06:25:23;;;;;;;;;3.00;3.00;;;;;21.14;62.61;99851.53;5065598;28;47382;-44
2022/10/15 06:27:48;;;;;;;;;4.00;4.00;;;;;21.13;62.71;99845.38;5080529;27;45445;-47
2022/10/15 06:30:13;;;;;;;;;1.00;1.00;;;;;21.13;62.93;99839.19;5072984;28;62163;-42
2022/10/15 06:32:39;;;;;;;;;4.00;2.50;;;;;21.07;63.11;99852.75;5081760;28;72087;-41
2022/10/15 06:35:05;;;;;;;;;2.00;1.50;;;;;21.00;63.29;99854.84;5080442;28;69842;-41
2022/10/15 06:37:30;;;;;;;;;1.00;1.00;;;;;20.95;63.62;99856.88;5082770;28;45583;-43
2022/10/15 06:39:55;;;;;;;;;2.00;2.00;;;;;20.92;63.63;99850.84;5045235;28;62915;-42
2022/10/15 06:42:21;;;;;;;;;1.00;1.00;;;;;20.89;63.82;99862.44;5071130;28;45312;-43
2022/10/15 06:44:46;;;;;;;;;1.00;1.00;;;;;20.82;64.23;99858.38;5079094;28;69672;-44
2022/10/15 06:47:11;;;;;;;;;1.75;1.00;;;;;20.78;64.43;99862.09;5081884;28;48238;-43
2022/10/15 06:49:37;;;;;;;;;2.00;1.00;;;;;20.75;64.49;99865.75;5081985;28;63255;-42
2022/10/15 06:52:02;;;;;;;;;0.75;0.00;;;;;20.71;64.50;99858.00;5077946;28;61793;-49
2022/10/15 06:54:27;;;;;;;;;1.00;1.00;;;;;20.57;65.04;99858.63;5066412;28;46138;-46
2022/10/15 06:56:53;;;;;;;;;3.00;1.00;;;;;20.49;65.17;99863.44;5060923;28;47097;-43
2022/10/15 06:59:20;;;;;;;;;0.25;0.25;;;;;20.49;65.59;99852.81;5060171;28;61081;-44
2022/10/15 07:01:46;;;;;;;;;2.25;1.00;;;;;20.51;65.43;99870.41;5067280;28;45447;-45
2022/10/15 07:04:11;;;;;;;;;1.00;1.00;;;;;20.51;65.45;99877.50;5079674;28;47101;-46
2022/10/15 07:06:36;;;;;;;;;2.00;0.75;;;;;20.48;65.56;99872.31;5068285;28;61796;-46
2022/10/15 07:09:02;;;;;;;;;1.50;1.50;;;;;20.44;65.48;99879.56;5063297;28;58844;-43
2022/10/15 07:11:27;;;;;;;;;1.00;1.00;;;;;20.46;65.53;99877.69;5071887;28;45254;-46
2022/10/15 07:13:53;;;;;;;;;1.00;1.00;;;;;20.53;65.16;99883.59;5060690;28;70370;-46
2022/10/15 07:16:18;;;;;;;;;4.75;1.75;;;;;20.58;65.36;99874.47;5070976;27;48015;-44
2022/10/15 07:18:46;;;;;;;;;1.00;0.00;;;;;20.64;65.04;99881.28;5081120;28;45258;-44
2022/10/15 07:21:12;;;;;;;;;3.00;2.00;;;;;20.69;64.99;99874.00;5064793;28;45220;-43
2022/10/15 07:23:37;;;;;;;;;1.75;1.00;;;;;20.74;64.92;99874.63;5079247;28;60220;-44
2022/10/15 07:26:03;;;;;;;;;0.75;0.25;;;;;20.79;65.02;99879.75;5081960;27;45456;-47
2022/10/15 07:28:28;;;;;;;;;2.00;1.00;;;;;20.84;64.86;99885.66;5079662;28;45374;-45
2022/10/15 07:30:53;;;;;;;;;3.00;2.00;;;;;20.88;64.80;99890.78;5073255;28;45495;-46
2022/10/15 07:33:19;;;;;;;;;2.75;2.50;;;;;20.94;64.76;99891.41;5060900;28;45405;-43
2022/10/15 07:35:44;;;;;;;;;1.25;1.25;;;;;21.00;64.79;99896.44;5073194;28;45366;-43
2022/10/15 07:38:10;;;;;;;;;5.00;3.00;;;;;21.01;64.55;99891.03;5080193;28;46705;-44
2022/10/15 07:40:35;;;;;;;;;1.50;1.50;;;;;21.04;64.51;99892.72;5081576;27;45289;-44
2022/10/15 07:43:00;;;;;;;;;2.50;1.25;;;;;21.06;64.52;99897.00;5080238;28;54136;-45
2022/10/15 07:45:26;;;;;;;;;2.75;1.00;;;;;21.07;64.50;99903.16;5081194;28;50201;-44
2022/10/15 07:47:51;;;;;;;;;5.00;3.00;;;;;21.08;64.46;99910.19;5081752;28;45500;-44
2022/10/15 07:50:17;;;;;;;;;3.50;2.00;;;;;21.09;64.34;99917.22;5073519;28;69315;-42
2022/10/15 07:52:42;;;;;;;;;2.00;2.00;;;;;21.09;64.55;99912.75;5060991;28;45285;-46
2022/10/15 07:55:08;;;;;;;;;1.00;1.00;;;;;21.10;64.87;99913.63;5062035;28;51784;-45
2022/10/15 07:57:33;;;;;;;;;1.50;1.00;;;;;21.11;64.64;99923.31;5076810;28;45484;-46
2022/10/15 07:59:59;;;;;;;;;3.50;2.50;;;;;21.11;64.26;99923.31;5080556;28;60371;-48
2022/10/15 08:02:24;;;;;;;;;1.75;1.75;;;;;21.12;64.25;99925.06;5044268;28;48631;-46
2022/10/15 08:04:50;;;;;;;;;1.75;1.75;;;;;21.14;64.07;99923.19;5063866;28;45287;-45
2022/10/15 08:07:15;;;;;;;;;2.25;2.00;;;;;21.15;64.13;99932.84;5062544;28;53441;-44
2022/10/15 08:09:40;;;;;;;;;2.00;1.00;;;;;21.15;64.41;99940.81;5059492;28;51019;-45
2022/10/15 08:12:06;;;;;;;;;2.00;2.00;;;;;21.15;64.45;99932.84;5060505;28;45339;-45
2022/10/15 08:14:32;;;;;;;;;2.00;2.00;;;;;21.15;64.32;99932.84;5060514;28;45312;-45
2022/10/15 08:16:58;;;;;;;;;5.00;3.00;;;;;21.14;64.23;99937.31;5059527;28;45486;-44
2022/10/15 08:19:23;;;;;;;;;3.00;2.00;;;;;21.15;64.13;99931.06;5060816;28;45264;-43
2022/10/15 08:21:48;;;;;;;;;2.25;2.25;;;;;21.16;64.09;99926.63;5071367;28;48106;-45
2022/10/15 08:24:14;;;;;;;;;2.50;0.00;;;;;21.16;64.13;99932.78;5079234;28;63963;-45
2022/10/15 08:26:39;;;;;;;;;1.50;1.50;;;;;21.17;64.27;99929.19;5069430;28;48101;-43
2022/10/15 08:29:05;;;;;;;;;2.50;2.25;;;;;21.17;63.92;99930.97;5060713;28;45528;-44
2022/10/15 08:31:34;;;;;;;;;4.25;3.00;;;;;21.17;64.04;99931.84;5070306;28;61255;-43
2022/10/15 08:34:00;;;;;;;;;1.75;0.25;;;;;21.17;63.91;99930.97;5063300;28;45240;-48
2022/10/15 08:36:25;;;;;;;;;2.00;1.00;;;;;21.17;64.19;99936.28;5079951;28;45456;-44
2022/10/15 08:38:51;;;;;;;;;1.00;1.00;;;;;21.17;63.99;99933.63;5061281;28;67284;-44
2022/10/15 08:41:25;;;;;;;;;2.00;1.00;;;;;21.16;64.39;99946.03;5070534;28;69972;-42
2022/10/15 08:43:50;;;;;;;;;1.00;1.00;;;;;21.18;63.79;99948.63;5063178;28;45331;-42
2022/10/15 08:46:19;;;;;;;;;1.00;1.00;;;;;21.18;63.78;99957.44;5066241;28;61146;-43
2022/10/15 08:48:49;;;;;;;;;2.00;1.00;;;;;21.18;63.97;99959.25;5041924;28;45601;-43
2022/10/15 08:51:25;;;;;;;;;1.50;1.00;;;;;21.18;64.38;99962.75;5060415;28;45294;-51
2022/10/15 08:53:54;;;;;;;;;1.50;0.50;;;;;21.19;64.20;99963.59;5067364;28;45356;-46
2022/10/15 08:56:42;;;;;;;;;0.25;0.00;;;;;21.20;63.78;99957.41;5077547;28;45481;-47
2022/10/15 08:59:30;;;;;;;;;0.25;0.25;;;;;21.21;63.98;99963.56;5059361;28;45578;-42
2022/10/15 09:02:06;;;;;;;;;2.25;2.25;;;;;21.20;63.53;99965.34;5066846;28;45524;-43
2022/10/15 09:04:40;;;;;;;;;1.00;1.00;;;;;21.21;63.77;99960.91;5079394;28;45260;-42
2022/10/15 09:07:08;;;;;;;;;0.50;0.50;;;;;21.21;63.69;99969.72;5079715;28;45276;-42
2022/10/15 09:09:57;;;;;;;;;2.50;1.75;;;;;21.22;63.87;99971.44;5079171;28;45518;-45
2022/10/15 09:12:46;;;;;;;;;1.00;1.00;;;;;21.22;63.60;99971.44;5049396;28;46340;-44
2022/10/15 09:15:13;;;;;;;;;0.00;0.00;;;;;21.23;63.84;99983.78;5080170;28;45275;-45
2022/10/15 09:17:38;;;;;;;;;1.75;1.00;;;;;21.22;63.75;99982.06;5079202;28;45294;-42
2022/10/15 09:20:05;;;;;;;;;2.00;0.75;;;;;21.24;63.63;99968.72;5070670;28;45322;-44
2022/10/15 09:22:31;;;;;;;;;0.25;0.25;;;;;21.23;63.82;99981.13;5058844;28;45848;-44
2022/10/15 09:24:56;;;;;;;;;3.00;1.00;;;;;21.26;63.62;99982.75;5052731;28;45423;-48
2022/10/15 09:27:42;;;;;;;;;0.00;0.00;;;;;21.26;63.63;99990.72;5062883;28;45395;-44
2022/10/15 09:30:32;;;;;;;;;0.25;0.25;;;;;21.25;63.56;100003.13;5041457;28;45534;-44
2022/10/15 09:33:15;;;;;;;;;1.50;1.00;;;;;21.25;63.45;100004.94;5068513;28;45469;-43
2022/10/15 09:35:50;;;;;;;;;2.00;1.00;;;;;21.24;63.44;100000.56;5080050;28;45249;-44
2022/10/15 09:38:28;;;;;;;;;0.75;0.00;;;;;21.25;63.69;100005.78;5080529;28;45392;-44
2022/10/15 09:40:53;;;;;;;;;1.00;1.00;;;;;21.26;63.43;99999.53;5080391;28;45326;-46
2022/10/15 09:43:26;;;;;;;;;1.00;1.00;;;;;21.28;63.54;99997.72;5079801;28;45469;-43
2022/10/15 09:45:51;;;;;;;;;1.00;1.00;;;;;21.30;63.39;100006.47;5080043;28;45275;-43
2022/10/15 09:48:17;;;;;;;;;1.25;0.25;;;;;21.30;63.11;100008.28;5078886;28;45339;-44
2022/10/15 09:50:46;;;;;;;;;0.25;0.25;;;;;21.31;63.45;100013.50;5045171;28;45581;-44
2022/10/15 09:53:50;;;;;;;;;1.75;0.75;;;;;21.33;63.37;100018.75;5061538;28;46610;-43
2022/10/15 09:56:17;;;;;;;;;1.50;0.50;;;;;21.33;63.29;100021.41;5061580;28;45300;-44
2022/10/15 09:58:54;;;;;;;;;0.25;0.25;;;;;21.34;63.09;100021.31;5075143;28;45282;-48
2022/10/15 10:01:24;;;;;;;;;1.00;1.00;;;;;21.34;63.17;100034.59;5068755;28;45379;-42
2022/10/15 10:04:12;;;;;;;;;0.00;0.00;;;;;21.36;63.44;100047.78;5069594;28;46169;-42
2022/10/15 10:06:52;;;;;;;;;1.50;0.00;;;;;21.36;63.26;100053.09;5063118;28;45230;-43
2022/10/15 10:09:19;;;;;;;;;2.00;1.25;;;;;21.36;63.04;100059.25;5045905;28;45441;-44
2022/10/15 10:11:47;;;;;;;;;0.25;0.25;;;;;21.37;63.08;100057.47;5064354;28;45366;-44
2022/10/15 10:14:30;;;;;;;;;1.00;1.00;;;;;21.38;62.85;100048.59;5064239;28;45330;-47
2022/10/15 10:17:06;;;;;;;;;0.00;0.00;;;;;21.38;62.79;100048.59;5053964;28;45517;-43
2022/10/15 10:19:32;;;;;;;;;0.00;0.00;;;;;21.37;62.63;100050.41;5045897;28;45435;-49
2022/10/15 10:22:14;;;;;;;;;0.00;0.00;;;;;21.39;62.76;100048.53;5061819;28;45342;-48
2022/10/15 10:24:39;;;;;;;;;0.25;0.00;;;;;21.39;62.59;100059.16;5064268;28;45719;-46
2022/10/15 10:27:16;;;;;;;;;1.00;0.00;;;;;21.40;62.48;100055.56;5061827;28;63280;-46
2022/10/15 10:29:42;;;;;;;;;0.00;0.00;;;;;21.39;62.55;100061.81;5064839;28;45382;-44
2022/10/15 10:32:16;;;;;;;;;2.00;0.25;;;;;21.41;62.34;100053.75;5056816;28;45264;-47
2022/10/15 10:34:41;;;;;;;;;1.00;0.00;;;;;21.42;62.55;100058.13;5080532;28;46076;-47
2022/10/15 10:37:09;;;;;;;;;1.00;1.00;;;;;21.42;62.64;100059.00;5082024;28;70653;-44
2022/10/15 10:39:35;;;;;;;;;0.00;0.00;;;;;21.39;62.52;100063.59;5081882;28;45291;-45
2022/10/15 10:42:04;;;;;;;;;0.00;0.00;;;;;21.37;61.96;100071.63;5070551;28;45358;-44
2022/10/15 10:44:29;;;;;;;;;1.00;0.00;;;;;21.38;61.92;100073.34;5077233;28;45348;-45
2022/10/15 10:47:12;;;;;;;;;17.50;16.50;;;;;21.38;61.96;100064.53;5081998;27;45428;-42
2022/10/15 10:49:39;;;;;;;;;61.75;49.25;;;;;21.38;61.76;100062.75;5072200;27;45471;-44
2022/10/15 10:52:05;;;;;;;;;60.25;47.50;;;;;21.38;62.06;100062.75;5062019;28;46976;-42
2022/10/15 10:54:30;;;;;;;;;51.50;39.25;;;;;21.37;61.53;100063.66;5061913;28;46169;-44
2022/10/15 10:56:56;;;;;;;;;54.75;41.75;;;;;21.37;61.79;100062.78;5063699;28;45289;-44
2022/10/15 10:59:27;;;;;;;;;45.75;34.50;;;;;21.39;61.83;100068.91;5051512;28;45570;-44
2022/10/15 11:01:53;;;;;;;;;24.25;24.00;;;;;21.39;61.46;100067.09;5078748;28;45397;-45
2022/10/15 11:04:32;;;;;;;;;13.00;10.50;;;;;21.33;60.88;100091.28;5064198;28;49498;-44
2022/10/15 11:07:04;;;;;;;;;21.75;18.50;;;;;21.32;61.31;100078.06;5067174;28;45468;-43
2022/10/15 11:09:56;;;;;;;;;13.00;10.50;;;;;21.35;61.85;100096.50;5073085;28;45315;-43
2022/10/15 11:12:56;;;;;;;;;9.00;7.75;;;;;21.40;61.40;100102.47;5066109;28;45449;-41
2022/10/15 11:15:41;;;;;;;;;8.75;7.50;;;;;21.42;61.70;100097.94;5063926;28;45350;-44
2022/10/15 11:18:40;;;;;;;;;8.00;7.00;;;;;21.47;61.79;100089.78;5074156;28;45394;-43
2022/10/15 11:21:33;;;;;;;;;8.50;6.50;;;;;21.50;61.30;100094.94;5065229;28;45520;-44
2022/10/15 11:24:07;;;;;;;;;9.75;7.75;;;;;21.53;61.65;100113.38;5069756;28;45177;-44
2022/10/15 11:27:03;;;;;;;;;8.25;7.25;;;;;21.55;61.71;100114.19;5043296;28;47134;-45
2022/10/15 11:29:35;;;;;;;;;8.50;8.00;;;;;21.58;61.62;100104.28;5047102;28;45861;-41
2022/10/15 11:32:12;;;;;;;;;10.75;8.75;;;;;21.62;61.37;100094.38;5049211;28;45516;-45
2022/10/15 11:34:51;;;;;;;;;11.50;8.50;;;;;21.66;61.75;100101.28;5080718;28;45298;-42